ADDS TAF Data INFO
IDs: Format: Raw Decoded Include METARs

Data at: 2202 UTC 19 Feb 2018

TAF ETSI 191415Z 1915/1924 VRB03KT 9999 NSW BKN020
  TEMPO 1918/1924 25003KT 6000 -SG BKN012 OVC020 CANCEL 1520